sensor_id;sensor_type;location;lat;lon;timestamp;temperature;humidity
57576;DHT22;43412;-33.800;150.804;2022-09-09T00:01:24;15.10;99.90
57576;DHT22;43412;-33.800;150.804;2022-09-09T00:04:03;15.10;99.90
57576;DHT22;43412;-33.800;150.804;2022-09-09T00:06:36;15.20;99.90
57576;DHT22;43412;-33.800;150.804;2022-09-09T00:09:10;15.20;99.90
57576;DHT22;43412;-33.800;150.804;2022-09-09T00:11:52;15.20;99.90
57576;DHT22;43412;-33.800;150.804;2022-09-09T00:14:25;15.20;99.90
57576;DHT22;43412;-33.800;150.804;2022-09-09T00:17:02;15.30;99.90
57576;DHT22;43412;-33.800;150.804;2022-09-09T00:19:33;15.30;99.90
57576;DHT22;43412;-33.800;150.804;2022-09-09T00:22:18;15.30;99.90
57576;DHT22;43412;-33.800;150.804;2022-09-09T00:24:51;15.30;99.90
57576;DHT22;43412;-33.800;150.804;2022-09-09T00:27:33;15.30;99.90
57576;DHT22;43412;-33.800;150.804;2022-09-09T00:30:27;15.30;99.90
57576;DHT22;43412;-33.800;150.804;2022-09-09T00:33:08;15.40;99.90
57576;DHT22;43412;-33.800;150.804;2022-09-09T00:35:58;15.40;99.90
57576;DHT22;43412;-33.800;150.804;2022-09-09T00:38:32;15.50;99.90
57576;DHT22;43412;-33.800;150.804;2022-09-09T00:43:38;15.70;99.90
57576;DHT22;43412;-33.800;150.804;2022-09-09T00:52:03;15.90;99.90
57576;DHT22;43412;-33.800;150.804;2022-09-09T00:54:45;16.10;99.90
57576;DHT22;43412;-33.800;150.804;2022-09-09T00:57:30;16.50;99.90
57576;DHT22;43412;-33.800;150.804;2022-09-09T01:00:18;16.80;99.90
57576;DHT22;43412;-33.800;150.804;2022-09-09T01:05:40;17.40;99.90
57576;DHT22;43412;-33.800;150.804;2022-09-09T01:10:57;17.60;99.90
57576;DHT22;43412;-33.800;150.804;2022-09-09T01:13:28;17.70;99.90
57576;DHT22;43412;-33.800;150.804;2022-09-09T01:16:03;17.80;99.90
57576;DHT22;43412;-33.800;150.804;2022-09-09T01:18:36;17.90;99.90
57576;DHT22;43412;-33.800;150.804;2022-09-09T01:28:54;17.60;99.90
57576;DHT22;43412;-33.800;150.804;2022-09-09T01:31:33;17.60;99.90
57576;DHT22;43412;-33.800;150.804;2022-09-09T01:34:04;17.80;99.90
57576;DHT22;43412;-33.800;150.804;2022-09-09T01:39:27;18.40;99.90
57576;DHT22;43412;-33.800;150.804;2022-09-09T01:41:56;18.70;99.90
57576;DHT22;43412;-33.800;150.804;2022-09-09T01:44:25;19.20;99.90
57576;DHT22;43412;-33.800;150.804;2022-09-09T01:46:53;19.40;99.90
57576;DHT22;43412;-33.800;150.804;2022-09-09T01:49:21;19.50;99.90
57576;DHT22;43412;-33.800;150.804;2022-09-09T02:01:02;20.40;99.90
57576;DHT22;43412;-33.800;150.804;2022-09-09T02:03:33;20.70;99.90
57576;DHT22;43412;-33.800;150.804;2022-09-09T02:08:49;20.50;99.90
57576;DHT22;43412;-33.800;150.804;2022-09-09T02:11:19;20.30;99.90
57576;DHT22;43412;-33.800;150.804;2022-09-09T02:13:49;20.10;99.90
57576;DHT22;43412;-33.800;150.804;2022-09-09T02:16:39;20.20;99.90
57576;DHT22;43412;-33.800;150.804;2022-09-09T02:21:48;20.20;99.90
57576;DHT22;43412;-33.800;150.804;2022-09-09T02:24:16;20.10;99.90
57576;DHT22;43412;-33.800;150.804;2022-09-09T02:26:45;20.10;99.90
57576;DHT22;43412;-33.800;150.804;2022-09-09T02:29:39;20.20;99.90
57576;DHT22;43412;-33.800;150.804;2022-09-09T02:32:23;20.50;99.90
57576;DHT22;43412;-33.800;150.804;2022-09-09T02:34:59;20.80;99.90
57576;DHT22;43412;-33.800;150.804;2022-09-09T02:37:34;21.10;99.90
57576;DHT22;43412;-33.800;150.804;2022-09-09T02:40:04;21.40;99.90
57576;DHT22;43412;-33.800;150.804;2022-09-09T02:42:38;21.60;99.90
57576;DHT22;43412;-33.800;150.804;2022-09-09T02:45:08;21.80;99.90
57576;DHT22;43412;-33.800;150.804;2022-09-09T02:51:02;21.70;99.90
57576;DHT22;43412;-33.800;150.804;2022-09-09T02:56:21;21.90;99.90
57576;DHT22;43412;-33.800;150.804;2022-09-09T02:58:52;21.80;99.90
57576;DHT22;43412;-33.800;150.804;2022-09-09T03:01:21;21.80;99.90
57576;DHT22;43412;-33.800;150.804;2022-09-09T03:03:49;22.00;99.90
57576;DHT22;43412;-33.800;150.804;2022-09-09T03:06:16;21.90;99.90
57576;DHT22;43412;-33.800;150.804;2022-09-09T03:08:43;21.60;99.90
57576;DHT22;43412;-33.800;150.804;2022-09-09T03:11:11;21.50;99.90
57576;DHT22;43412;-33.800;150.804;2022-09-09T03:13:40;21.30;99.90
57576;DHT22;43412;-33.800;150.804;2022-09-09T03:16:08;21.10;99.90
57576;DHT22;43412;-33.800;150.804;2022-09-09T03:18:35;21.00;99.90
57576;DHT22;43412;-33.800;150.804;2022-09-09T03:21:02;20.80;99.90
57576;DHT22;43412;-33.800;150.804;2022-09-09T03:23:30;20.80;99.90
57576;DHT22;43412;-33.800;150.804;2022-09-09T03:25:57;20.80;99.90
57576;DHT22;43412;-33.800;150.804;2022-09-09T03:28:25;21.00;99.90
57576;DHT22;43412;-33.800;150.804;2022-09-09T03:31:05;21.60;99.90
57576;DHT22;43412;-33.800;150.804;2022-09-09T03:33:32;22.10;99.90
57576;DHT22;43412;-33.800;150.804;2022-09-09T03:36:00;22.30;99.90
57576;DHT22;43412;-33.800;150.804;2022-09-09T03:38:28;22.40;99.90
57576;DHT22;43412;-33.800;150.804;2022-09-09T03:40:57;22.20;99.90
57576;DHT22;43412;-33.800;150.804;2022-09-09T03:43:26;22.10;99.80
57576;DHT22;43412;-33.800;150.804;2022-09-09T03:45:54;22.20;99.30
57576;DHT22;43412;-33.800;150.804;2022-09-09T03:48:24;22.30;98.70
57576;DHT22;43412;-33.800;150.804;2022-09-09T03:50:54;22.40;98.90
57576;DHT22;43412;-33.800;150.804;2022-09-09T03:53:24;23.10;98.80
57576;DHT22;43412;-33.800;150.804;2022-09-09T03:55:54;23.60;96.80
57576;DHT22;43412;-33.800;150.804;2022-09-09T03:58:23;24.00;97.00
57576;DHT22;43412;-33.800;150.804;2022-09-09T04:00:57;24.10;96.30
57576;DHT22;43412;-33.800;150.804;2022-09-09T04:03:25;24.00;95.90
57576;DHT22;43412;-33.800;150.804;2022-09-09T04:05:54;24.00;95.80
57576;DHT22;43412;-33.800;150.804;2022-09-09T04:08:22;24.10;94.90
57576;DHT22;43412;-33.800;150.804;2022-09-09T04:10:52;23.90;94.80
57576;DHT22;43412;-33.800;150.804;2022-09-09T04:13:21;24.00;95.80
57576;DHT22;43412;-33.800;150.804;2022-09-09T04:16:00;24.10;95.00
57576;DHT22;43412;-33.800;150.804;2022-09-09T04:18:27;24.20;95.00
57576;DHT22;43412;-33.800;150.804;2022-09-09T04:20:55;24.20;95.40
57576;DHT22;43412;-33.800;150.804;2022-09-09T04:23:26;24.10;95.40
57576;DHT22;43412;-33.800;150.804;2022-09-09T04:25:57;24.10;95.10
57576;DHT22;43412;-33.800;150.804;2022-09-09T04:28:27;24.20;95.30
57576;DHT22;43412;-33.800;150.804;2022-09-09T04:30:55;24.20;94.20
57576;DHT22;43412;-33.800;150.804;2022-09-09T04:33:26;23.80;94.90
57576;DHT22;43412;-33.800;150.804;2022-09-09T04:35:53;23.10;95.60
57576;DHT22;43412;-33.800;150.804;2022-09-09T04:38:24;22.40;96.00
57576;DHT22;43412;-33.800;150.804;2022-09-09T04:40:52;21.90;96.70
57576;DHT22;43412;-33.800;150.804;2022-09-09T04:43:20;21.50;97.00
57576;DHT22;43412;-33.800;150.804;2022-09-09T04:45:50;21.40;97.90
57576;DHT22;43412;-33.800;150.804;2022-09-09T04:48:21;21.30;98.80
57576;DHT22;43412;-33.800;150.804;2022-09-09T04:51:17;21.10;99.00
57576;DHT22;43412;-33.800;150.804;2022-09-09T04:53:45;20.80;99.90
57576;DHT22;43412;-33.800;150.804;2022-09-09T04:56:16;20.70;99.90
57576;DHT22;43412;-33.800;150.804;2022-09-09T04:58:44;20.70;99.90
57576;DHT22;43412;-33.800;150.804;2022-09-09T05:01:14;20.70;99.90
57576;DHT22;43412;-33.800;150.804;2022-09-09T05:03:44;20.50;99.90
57576;DHT22;43412;-33.800;150.804;2022-09-09T05:06:17;20.20;99.90
57576;DHT22;43412;-33.800;150.804;2022-09-09T05:08:45;20.00;99.90
57576;DHT22;43412;-33.800;150.804;2022-09-09T05:11:24;19.70;99.90
57576;DHT22;43412;-33.800;150.804;2022-09-09T05:13:52;19.50;99.90
57576;DHT22;43412;-33.800;150.804;2022-09-09T05:16:21;19.30;99.90
57576;DHT22;43412;-33.800;150.804;2022-09-09T05:18:49;19.00;99.90
57576;DHT22;43412;-33.800;150.804;2022-09-09T05:21:19;18.60;99.90
57576;DHT22;43412;-33.800;150.804;2022-09-09T05:23:47;18.10;99.90
57576;DHT22;43412;-33.800;150.804;2022-09-09T05:26:16;17.70;99.90
57576;DHT22;43412;-33.800;150.804;2022-09-09T05:28:45;17.70;99.90
57576;DHT22;43412;-33.800;150.804;2022-09-09T05:31:14;17.70;99.90
57576;DHT22;43412;-33.800;150.804;2022-09-09T05:33:43;17.80;99.90
57576;DHT22;43412;-33.800;150.804;2022-09-09T05:36:19;17.90;99.90
57576;DHT22;43412;-33.800;150.804;2022-09-09T05:38:47;18.10;99.90
57576;DHT22;43412;-33.800;150.804;2022-09-09T05:41:16;18.20;99.90
57576;DHT22;43412;-33.800;150.804;2022-09-09T05:43:44;18.40;99.90
57576;DHT22;43412;-33.800;150.804;2022-09-09T05:46:21;18.80;99.90
57576;DHT22;43412;-33.800;150.804;2022-09-09T05:48:50;18.90;99.90
57576;DHT22;43412;-33.800;150.804;2022-09-09T05:51:22;18.90;99.90
57576;DHT22;43412;-33.800;150.804;2022-09-09T05:53:51;18.70;99.90
57576;DHT22;43412;-33.800;150.804;2022-09-09T05:56:20;18.60;99.90
57576;DHT22;43412;-33.800;150.804;2022-09-09T05:58:57;18.60;99.90
57576;DHT22;43412;-33.800;150.804;2022-09-09T06:01:28;18.70;99.90
57576;DHT22;43412;-33.800;150.804;2022-09-09T06:03:57;19.10;99.90
57576;DHT22;43412;-33.800;150.804;2022-09-09T06:06:26;19.40;99.90
57576;DHT22;43412;-33.800;150.804;2022-09-09T06:08:55;19.70;99.90
57576;DHT22;43412;-33.800;150.804;2022-09-09T06:11:28;19.90;99.90
57576;DHT22;43412;-33.800;150.804;2022-09-09T06:13:58;20.00;99.90
57576;DHT22;43412;-33.800;150.804;2022-09-09T06:16:27;20.10;99.90
57576;DHT22;43412;-33.800;150.804;2022-09-09T06:18:56;20.10;99.90
57576;DHT22;43412;-33.800;150.804;2022-09-09T06:21:26;20.20;99.90
57576;DHT22;43412;-33.800;150.804;2022-09-09T06:23:54;19.90;99.90
57576;DHT22;43412;-33.800;150.804;2022-09-09T06:26:23;19.60;99.90
57576;DHT22;43412;-33.800;150.804;2022-09-09T06:28:53;19.30;99.90
57576;DHT22;43412;-33.800;150.804;2022-09-09T06:31:23;19.10;99.90
57576;DHT22;43412;-33.800;150.804;2022-09-09T06:33:52;18.90;99.90
57576;DHT22;43412;-33.800;150.804;2022-09-09T06:36:24;18.70;99.90
57576;DHT22;43412;-33.800;150.804;2022-09-09T06:38:52;18.60;99.90
57576;DHT22;43412;-33.800;150.804;2022-09-09T06:41:21;18.50;99.90
57576;DHT22;43412;-33.800;150.804;2022-09-09T06:43:49;18.40;99.90
57576;DHT22;43412;-33.800;150.804;2022-09-09T06:46:19;18.30;99.90
57576;DHT22;43412;-33.800;150.804;2022-09-09T06:48:46;18.20;99.90
57576;DHT22;43412;-33.800;150.804;2022-09-09T06:51:20;18.20;99.90
57576;DHT22;43412;-33.800;150.804;2022-09-09T06:53:52;18.40;99.90
57576;DHT22;43412;-33.800;150.804;2022-09-09T06:56:30;18.50;99.90
57576;DHT22;43412;-33.800;150.804;2022-09-09T06:59:01;18.70;99.90
57576;DHT22;43412;-33.800;150.804;2022-09-09T07:01:32;18.80;99.90
57576;DHT22;43412;-33.800;150.804;2022-09-09T07:04:01;18.70;99.90
57576;DHT22;43412;-33.800;150.804;2022-09-09T07:06:33;18.60;99.90
57576;DHT22;43412;-33.800;150.804;2022-09-09T07:09:09;18.50;99.90
57576;DHT22;43412;-33.800;150.804;2022-09-09T07:11:46;18.40;99.90
57576;DHT22;43412;-33.800;150.804;2022-09-09T07:14:14;18.30;99.90
57576;DHT22;43412;-33.800;150.804;2022-09-09T07:16:42;18.10;99.90
57576;DHT22;43412;-33.800;150.804;2022-09-09T07:19:11;17.90;99.90
57576;DHT22;43412;-33.800;150.804;2022-09-09T07:21:39;17.80;99.90
57576;DHT22;43412;-33.800;150.804;2022-09-09T07:24:09;17.70;99.90
57576;DHT22;43412;-33.800;150.804;2022-09-09T07:26:38;17.60;99.90
57576;DHT22;43412;-33.800;150.804;2022-09-09T07:29:06;17.40;99.90
57576;DHT22;43412;-33.800;150.804;2022-09-09T07:31:36;17.30;99.90
57576;DHT22;43412;-33.800;150.804;2022-09-09T07:34:04;17.20;99.90
57576;DHT22;43412;-33.800;150.804;2022-09-09T07:36:35;17.10;99.90
57576;DHT22;43412;-33.800;150.804;2022-09-09T07:39:07;17.00;99.90
57576;DHT22;43412;-33.800;150.804;2022-09-09T07:41:40;16.90;99.90
57576;DHT22;43412;-33.800;150.804;2022-09-09T07:44:17;16.80;99.90
57576;DHT22;43412;-33.800;150.804;2022-09-09T07:46:44;16.80;99.90
57576;DHT22;43412;-33.800;150.804;2022-09-09T07:49:12;16.70;99.90
57576;DHT22;43412;-33.800;150.804;2022-09-09T07:51:41;16.60;99.90
57576;DHT22;43412;-33.800;150.804;2022-09-09T07:54:11;16.50;99.90
57576;DHT22;43412;-33.800;150.804;2022-09-09T07:56:40;16.40;99.90
57576;DHT22;43412;-33.800;150.804;2022-09-09T07:59:08;16.30;99.90
57576;DHT22;43412;-33.800;150.804;2022-09-09T08:01:44;16.20;99.90
57576;DHT22;43412;-33.800;150.804;2022-09-09T08:04:15;16.20;99.90
57576;DHT22;43412;-33.800;150.804;2022-09-09T08:06:45;16.10;99.90
57576;DHT22;43412;-33.800;150.804;2022-09-09T08:09:14;16.00;99.90
57576;DHT22;43412;-33.800;150.804;2022-09-09T08:11:43;15.90;99.90
57576;DHT22;43412;-33.800;150.804;2022-09-09T08:14:11;15.80;99.90
57576;DHT22;43412;-33.800;150.804;2022-09-09T08:16:42;15.80;99.90
57576;DHT22;43412;-33.800;150.804;2022-09-09T08:19:09;15.70;99.90
57576;DHT22;43412;-33.800;150.804;2022-09-09T08:21:39;15.70;99.90
57576;DHT22;43412;-33.800;150.804;2022-09-09T08:24:11;15.70;99.90
57576;DHT22;43412;-33.800;150.804;2022-09-09T08:26:43;15.70;99.90
57576;DHT22;43412;-33.800;150.804;2022-09-09T08:29:12;15.60;99.90
57576;DHT22;43412;-33.800;150.804;2022-09-09T08:31:51;15.60;99.90
57576;DHT22;43412;-33.800;150.804;2022-09-09T08:34:21;15.60;99.90
57576;DHT22;43412;-33.800;150.804;2022-09-09T08:36:50;15.70;99.90
57576;DHT22;43412;-33.800;150.804;2022-09-09T08:39:20;15.80;99.90
57576;DHT22;43412;-33.800;150.804;2022-09-09T08:52:26;15.50;99.90
57576;DHT22;43412;-33.800;150.804;2022-09-09T08:55:02;15.40;99.90
57576;DHT22;43412;-33.800;150.804;2022-09-09T08:57:32;15.30;99.90
57576;DHT22;43412;-33.800;150.804;2022-09-09T08:59:59;15.20;99.90
57576;DHT22;43412;-33.800;150.804;2022-09-09T09:05:48;15.20;99.90
57576;DHT22;43412;-33.800;150.804;2022-09-09T09:08:32;15.20;99.90
57576;DHT22;43412;-33.800;150.804;2022-09-09T09:11:04;15.20;99.90
57576;DHT22;43412;-33.800;150.804;2022-09-09T09:16:45;15.30;99.90
57576;DHT22;43412;-33.800;150.804;2022-09-09T09:19:17;15.20;99.90
57576;DHT22;43412;-33.800;150.804;2022-09-09T09:24:43;15.10;99.90
57576;DHT22;43412;-33.800;150.804;2022-09-09T09:27:36;15.10;99.90
57576;DHT22;43412;-33.800;150.804;2022-09-09T09:30:22;15.10;99.90
57576;DHT22;43412;-33.800;150.804;2022-09-09T09:32:54;15.00;99.90
57576;DHT22;43412;-33.800;150.804;2022-09-09T09:35:23;15.00;99.90
57576;DHT22;43412;-33.800;150.804;2022-09-09T09:37:50;14.90;99.90
57576;DHT22;43412;-33.800;150.804;2022-09-09T09:40:20;14.90;99.90
57576;DHT22;43412;-33.800;150.804;2022-09-09T09:42:54;14.90;99.90
57576;DHT22;43412;-33.800;150.804;2022-09-09T09:45:34;15.00;99.90
57576;DHT22;43412;-33.800;150.804;2022-09-09T09:48:12;15.00;99.90
57576;DHT22;43412;-33.800;150.804;2022-09-09T09:53:31;14.80;99.90
57576;DHT22;43412;-33.800;150.804;2022-09-09T09:56:26;14.80;99.90
57576;DHT22;43412;-33.800;150.804;2022-09-09T09:58:52;14.70;99.90
57576;DHT22;43412;-33.800;150.804;2022-09-09T10:01:32;14.60;99.90
57576;DHT22;43412;-33.800;150.804;2022-09-09T10:04:15;14.50;99.90
57576;DHT22;43412;-33.800;150.804;2022-09-09T10:06:43;14.50;99.90
57576;DHT22;43412;-33.800;150.804;2022-09-09T10:09:28;14.50;99.90
57576;DHT22;43412;-33.800;150.804;2022-09-09T10:15:21;14.30;99.90
57576;DHT22;43412;-33.800;150.804;2022-09-09T10:24:35;14.30;99.90
57576;DHT22;43412;-33.800;150.804;2022-09-09T10:38:00;14.30;99.90
57576;DHT22;43412;-33.800;150.804;2022-09-09T10:56:48;14.50;99.90
57576;DHT22;43412;-33.800;150.804;2022-09-09T10:59:24;14.60;99.90
57576;DHT22;43412;-33.800;150.804;2022-09-09T11:04:35;14.80;99.90
57576;DHT22;43412;-33.800;150.804;2022-09-09T11:07:12;14.90;99.90
57576;DHT22;43412;-33.800;150.804;2022-09-09T11:09:49;15.00;99.90
57576;DHT22;43412;-33.800;150.804;2022-09-09T11:12:20;15.10;99.90
57576;DHT22;43412;-33.800;150.804;2022-09-09T11:14:59;15.10;99.90
57576;DHT22;43412;-33.800;150.804;2022-09-09T11:17:42;15.20;99.90
57576;DHT22;43412;-33.800;150.804;2022-09-09T11:20:14;15.20;99.90
57576;DHT22;43412;-33.800;150.804;2022-09-09T11:22:48;15.10;99.90
57576;DHT22;43412;-33.800;150.804;2022-09-09T11:25:18;15.20;99.90
57576;DHT22;43412;-33.800;150.804;2022-09-09T11:28:23;15.10;99.90
57576;DHT22;43412;-33.800;150.804;2022-09-09T11:44:41;15.10;99.90
57576;DHT22;43412;-33.800;150.804;2022-09-09T11:47:31;15.20;99.90
57576;DHT22;43412;-33.800;150.804;2022-09-09T11:52:44;15.20;99.90
57576;DHT22;43412;-33.800;150.804;2022-09-09T11:55:29;15.30;99.90
57576;DHT22;43412;-33.800;150.804;2022-09-09T12:00:44;15.40;99.90
57576;DHT22;43412;-33.800;150.804;2022-09-09T12:06:41;15.50;99.90
57576;DHT22;43412;-33.800;150.804;2022-09-09T12:12:27;15.40;99.90
57576;DHT22;43412;-33.800;150.804;2022-09-09T12:17:53;15.20;99.90
57576;DHT22;43412;-33.800;150.804;2022-09-09T12:34:36;14.70;99.90
57576;DHT22;43412;-33.800;150.804;2022-09-09T12:37:35;14.60;99.90
57576;DHT22;43412;-33.800;150.804;2022-09-09T12:40:21;14.60;99.90
57576;DHT22;43412;-33.800;150.804;2022-09-09T12:42:49;14.60;99.90
57576;DHT22;43412;-33.800;150.804;2022-09-09T12:45:19;14.60;99.90
57576;DHT22;43412;-33.800;150.804;2022-09-09T12:50:35;14.70;99.90
57576;DHT22;43412;-33.800;150.804;2022-09-09T12:53:10;14.80;99.90
57576;DHT22;43412;-33.800;150.804;2022-09-09T12:56:02;14.70;99.90
57576;DHT22;43412;-33.800;150.804;2022-09-09T12:58:31;14.70;99.90
57576;DHT22;43412;-33.800;150.804;2022-09-09T13:01:00;14.60;99.90
57576;DHT22;43412;-33.800;150.804;2022-09-09T13:03:29;14.50;99.90
57576;DHT22;43412;-33.800;150.804;2022-09-09T13:06:12;14.40;99.90
57576;DHT22;43412;-33.800;150.804;2022-09-09T13:08:41;14.40;99.90
57576;DHT22;43412;-33.800;150.804;2022-09-09T13:11:22;14.20;99.90
57576;DHT22;43412;-33.800;150.804;2022-09-09T13:13:56;14.20;99.90
57576;DHT22;43412;-33.800;150.804;2022-09-09T13:16:29;14.20;99.90
57576;DHT22;43412;-33.800;150.804;2022-09-09T13:19:09;14.30;99.90
57576;DHT22;43412;-33.800;150.804;2022-09-09T13:21:38;14.30;99.90
57576;DHT22;43412;-33.800;150.804;2022-09-09T13:24:29;14.30;99.90
57576;DHT22;43412;-33.800;150.804;2022-09-09T13:27:04;14.30;99.90
57576;DHT22;43412;-33.800;150.804;2022-09-09T13:29:32;14.20;99.90
57576;DHT22;43412;-33.800;150.804;2022-09-09T13:32:16;14.20;99.90
57576;DHT22;43412;-33.800;150.804;2022-09-09T13:35:00;14.10;99.90
57576;DHT22;43412;-33.800;150.804;2022-09-09T13:37:38;14.10;99.90
57576;DHT22;43412;-33.800;150.804;2022-09-09T13:40:18;14.10;99.90
57576;DHT22;43412;-33.800;150.804;2022-09-09T13:42:46;14.00;99.90
57576;DHT22;43412;-33.800;150.804;2022-09-09T13:45:24;14.00;99.90
57576;DHT22;43412;-33.800;150.804;2022-09-09T13:47:55;14.00;99.90
57576;DHT22;43412;-33.800;150.804;2022-09-09T13:50:28;14.00;99.90
57576;DHT22;43412;-33.800;150.804;2022-09-09T13:52:57;13.90;99.90
57576;DHT22;43412;-33.800;150.804;2022-09-09T13:55:28;13.90;99.90
57576;DHT22;43412;-33.800;150.804;2022-09-09T14:00:30;13.80;99.90
57576;DHT22;43412;-33.800;150.804;2022-09-09T14:02:58;13.80;99.90
57576;DHT22;43412;-33.800;150.804;2022-09-09T14:05:31;13.80;99.90
57576;DHT22;43412;-33.800;150.804;2022-09-09T14:07:59;13.80;99.90
57576;DHT22;43412;-33.800;150.804;2022-09-09T14:10:30;13.80;99.90
57576;DHT22;43412;-33.800;150.804;2022-09-09T14:12:57;13.80;99.90
57576;DHT22;43412;-33.800;150.804;2022-09-09T14:15:25;13.80;99.90
57576;DHT22;43412;-33.800;150.804;2022-09-09T14:17:53;13.70;99.90
57576;DHT22;43412;-33.800;150.804;2022-09-09T14:20:21;13.70;99.90
57576;DHT22;43412;-33.800;150.804;2022-09-09T14:22:48;13.70;99.90
57576;DHT22;43412;-33.800;150.804;2022-09-09T14:25:16;13.70;99.90
57576;DHT22;43412;-33.800;150.804;2022-09-09T14:27:44;13.70;99.90
57576;DHT22;43412;-33.800;150.804;2022-09-09T14:30:14;13.80;99.90
57576;DHT22;43412;-33.800;150.804;2022-09-09T14:32:41;13.70;99.90
57576;DHT22;43412;-33.800;150.804;2022-09-09T14:35:09;13.70;99.90
57576;DHT22;43412;-33.800;150.804;2022-09-09T14:37:36;13.70;99.90
57576;DHT22;43412;-33.800;150.804;2022-09-09T14:40:06;13.70;99.90
57576;DHT22;43412;-33.800;150.804;2022-09-09T14:42:33;13.80;99.90
57576;DHT22;43412;-33.800;150.804;2022-09-09T14:45:01;13.70;99.90
57576;DHT22;43412;-33.800;150.804;2022-09-09T14:47:28;13.70;99.90
57576;DHT22;43412;-33.800;150.804;2022-09-09T14:49:56;13.70;99.90
57576;DHT22;43412;-33.800;150.804;2022-09-09T14:52:24;13.60;99.90
57576;DHT22;43412;-33.800;150.804;2022-09-09T14:54:52;13.70;99.90
57576;DHT22;43412;-33.800;150.804;2022-09-09T14:57:19;13.60;99.90
57576;DHT22;43412;-33.800;150.804;2022-09-09T14:59:47;13.60;99.90
57576;DHT22;43412;-33.800;150.804;2022-09-09T15:02:15;13.60;99.90
57576;DHT22;43412;-33.800;150.804;2022-09-09T15:04:43;13.50;99.90
57576;DHT22;43412;-33.800;150.804;2022-09-09T15:07:11;13.60;99.90
57576;DHT22;43412;-33.800;150.804;2022-09-09T15:09:38;13.50;99.90
57576;DHT22;43412;-33.800;150.804;2022-09-09T15:12:05;13.40;99.90
57576;DHT22;43412;-33.800;150.804;2022-09-09T15:14:33;13.40;99.90
57576;DHT22;43412;-33.800;150.804;2022-09-09T15:17:01;13.30;99.90
57576;DHT22;43412;-33.800;150.804;2022-09-09T15:19:29;13.20;99.90
57576;DHT22;43412;-33.800;150.804;2022-09-09T15:21:56;13.10;99.90
57576;DHT22;43412;-33.800;150.804;2022-09-09T15:24:23;13.10;99.90
57576;DHT22;43412;-33.800;150.804;2022-09-09T15:26:52;13.00;99.90
57576;DHT22;43412;-33.800;150.804;2022-09-09T15:29:20;13.00;99.90
57576;DHT22;43412;-33.800;150.804;2022-09-09T15:31:47;13.00;99.90
57576;DHT22;43412;-33.800;150.804;2022-09-09T15:34:15;13.00;99.90
57576;DHT22;43412;-33.800;150.804;2022-09-09T15:36:45;13.00;99.90
57576;DHT22;43412;-33.800;150.804;2022-09-09T15:39:17;13.10;99.90
57576;DHT22;43412;-33.800;150.804;2022-09-09T15:41:48;13.00;99.90
57576;DHT22;43412;-33.800;150.804;2022-09-09T15:44:16;13.00;99.90
57576;DHT22;43412;-33.800;150.804;2022-09-09T15:46:49;13.10;99.90
57576;DHT22;43412;-33.800;150.804;2022-09-09T15:49:27;13.10;99.90
57576;DHT22;43412;-33.800;150.804;2022-09-09T15:51:59;13.20;99.90
57576;DHT22;43412;-33.800;150.804;2022-09-09T15:54:33;13.20;99.90
57576;DHT22;43412;-33.800;150.804;2022-09-09T15:57:03;13.30;99.90
57576;DHT22;43412;-33.800;150.804;2022-09-09T15:59:31;13.40;99.90
57576;DHT22;43412;-33.800;150.804;2022-09-09T16:02:00;13.40;99.90
57576;DHT22;43412;-33.800;150.804;2022-09-09T16:04:28;13.40;99.90
57576;DHT22;43412;-33.800;150.804;2022-09-09T16:07:02;13.40;99.90
57576;DHT22;43412;-33.800;150.804;2022-09-09T16:09:31;13.40;99.90
57576;DHT22;43412;-33.800;150.804;2022-09-09T16:12:03;13.40;99.90
57576;DHT22;43412;-33.800;150.804;2022-09-09T16:14:34;13.40;99.90
57576;DHT22;43412;-33.800;150.804;2022-09-09T16:17:04;13.30;99.90
57576;DHT22;43412;-33.800;150.804;2022-09-09T16:19:32;13.30;99.90
57576;DHT22;43412;-33.800;150.804;2022-09-09T16:22:01;13.30;99.90
57576;DHT22;43412;-33.800;150.804;2022-09-09T16:24:29;13.30;99.90
57576;DHT22;43412;-33.800;150.804;2022-09-09T16:26:57;13.30;99.90
57576;DHT22;43412;-33.800;150.804;2022-09-09T16:29:24;13.30;99.90
57576;DHT22;43412;-33.800;150.804;2022-09-09T16:31:54;13.30;99.90
57576;DHT22;43412;-33.800;150.804;2022-09-09T16:34:21;13.30;99.90
57576;DHT22;43412;-33.800;150.804;2022-09-09T16:36:49;13.30;99.90
57576;DHT22;43412;-33.800;150.804;2022-09-09T16:39:19;13.40;99.90
57576;DHT22;43412;-33.800;150.804;2022-09-09T16:41:47;13.40;99.90
57576;DHT22;43412;-33.800;150.804;2022-09-09T16:44:16;13.40;99.90
57576;DHT22;43412;-33.800;150.804;2022-09-09T16:46:46;13.40;99.90
57576;DHT22;43412;-33.800;150.804;2022-09-09T16:49:15;13.40;99.90
57576;DHT22;43412;-33.800;150.804;2022-09-09T16:51:45;13.40;99.90
57576;DHT22;43412;-33.800;150.804;2022-09-09T16:54:17;13.40;99.90
57576;DHT22;43412;-33.800;150.804;2022-09-09T16:56:46;13.40;99.90
57576;DHT22;43412;-33.800;150.804;2022-09-09T16:59:19;13.40;99.90
57576;DHT22;43412;-33.800;150.804;2022-09-09T17:01:49;13.40;99.90
57576;DHT22;43412;-33.800;150.804;2022-09-09T17:04:22;13.40;99.90
57576;DHT22;43412;-33.800;150.804;2022-09-09T17:06:53;13.30;99.90
57576;DHT22;43412;-33.800;150.804;2022-09-09T17:09:22;13.40;99.90
57576;DHT22;43412;-33.800;150.804;2022-09-09T17:11:50;13.40;99.90
57576;DHT22;43412;-33.800;150.804;2022-09-09T17:14:19;13.30;99.90
57576;DHT22;43412;-33.800;150.804;2022-09-09T17:16:47;13.30;99.90
57576;DHT22;43412;-33.800;150.804;2022-09-09T17:19:18;13.30;99.90
57576;DHT22;43412;-33.800;150.804;2022-09-09T17:21:45;13.30;99.90
57576;DHT22;43412;-33.800;150.804;2022-09-09T17:24:13;13.30;99.90
57576;DHT22;43412;-33.800;150.804;2022-09-09T17:26:42;13.30;99.90
57576;DHT22;43412;-33.800;150.804;2022-09-09T17:29:11;13.30;99.90
57576;DHT22;43412;-33.800;150.804;2022-09-09T17:31:38;13.20;99.90
57576;DHT22;43412;-33.800;150.804;2022-09-09T17:34:09;13.20;99.90
57576;DHT22;43412;-33.800;150.804;2022-09-09T17:36:37;13.30;99.90
57576;DHT22;43412;-33.800;150.804;2022-09-09T17:39:06;13.20;99.90
57576;DHT22;43412;-33.800;150.804;2022-09-09T17:41:40;13.20;99.90
57576;DHT22;43412;-33.800;150.804;2022-09-09T17:44:08;13.10;99.90
57576;DHT22;43412;-33.800;150.804;2022-09-09T17:46:40;13.10;99.90
57576;DHT22;43412;-33.800;150.804;2022-09-09T17:49:13;13.10;99.90
57576;DHT22;43412;-33.800;150.804;2022-09-09T17:51:41;13.10;99.90